createdAt,value
2022-09-04T00:02:26.560Z,58.67
2022-09-04T00:05:11.095Z,58.83
2022-09-04T00:07:48.513Z,58.74
2022-09-04T00:10:36.389Z,59.08
2022-09-04T00:13:12.369Z,59.19
2022-09-04T00:15:48.190Z,59.26
2022-09-04T00:18:23.440Z,59.56
2022-09-04T00:20:57.652Z,59.50
2022-09-04T00:23:44.924Z,59.62
2022-09-04T00:26:21.133Z,59.50
2022-09-04T00:28:51.146Z,59.40
2022-09-04T00:31:34.005Z,59.47
2022-09-04T00:34:19.397Z,59.67
2022-09-04T00:36:51.326Z,59.98
2022-09-04T00:39:25.530Z,59.70
2022-09-04T00:42:08.857Z,59.75
2022-09-04T00:45:11.984Z,60.24
2022-09-04T00:48:21.617Z,60.44
2022-09-04T00:51:11.718Z,60.54
2022-09-04T00:53:51.029Z,60.04
2022-09-04T00:56:52.346Z,60.70
2022-09-04T00:59:55.544Z,61.25
2022-09-04T01:02:43.590Z,60.88
2022-09-04T01:05:47.939Z,61.51
2022-09-04T01:08:16.742Z,62.01
2022-09-04T01:10:58.057Z,62.21
2022-09-04T01:13:27.320Z,61.96
2022-09-04T01:16:13.326Z,62.66
2022-09-04T01:18:53.677Z,62.66
2022-09-04T01:21:35.359Z,62.86
2022-09-04T01:24:29.275Z,62.38
2022-09-04T01:27:04.778Z,62.74
2022-09-04T01:29:50.187Z,62.95
2022-09-04T01:32:31.533Z,62.57
2022-09-04T01:35:12.933Z,62.33
2022-09-04T01:37:52.440Z,62.58
2022-09-04T01:40:35.603Z,63.35
2022-09-04T01:43:08.420Z,63.47
2022-09-04T01:45:55.480Z,62.91
2022-09-04T01:48:49.595Z,64.13
2022-09-04T01:51:37.787Z,64.24
2022-09-04T01:54:28.935Z,64.60
2022-09-04T01:57:14.178Z,64.78
2022-09-04T01:59:55.932Z,65.17
2022-09-04T02:02:32.241Z,65.81
2022-09-04T02:05:08.570Z,66.33
2022-09-04T02:08:29.822Z,66.63
2022-09-04T02:11:05.059Z,67.09
2022-09-04T02:13:46.601Z,67.06
2022-09-04T02:16:26.503Z,67.12
2022-09-04T02:19:24.141Z,67.32
2022-09-04T02:22:01.695Z,67.55
2022-09-04T02:24:44.137Z,66.89
2022-09-04T02:27:29.793Z,66.46
2022-09-04T02:30:04.114Z,66.27
2022-09-04T02:32:37.846Z,66.46
2022-09-04T02:35:26.723Z,66.30
2022-09-04T02:38:17.471Z,66.57
2022-09-04T02:40:51.758Z,66.81
2022-09-04T02:43:35.523Z,66.53
2022-09-04T02:46:37.369Z,66.59
2022-09-04T02:49:24.851Z,66.79
2022-09-04T02:52:09.200Z,66.29
2022-09-04T02:54:49.223Z,66.22
2022-09-04T02:57:56.540Z,66.38
2022-09-04T03:00:39.430Z,66.42
2022-09-04T03:03:18.748Z,66.06
2022-09-04T03:06:06.890Z,66.19
2022-09-04T03:08:43.409Z,66.56
2022-09-04T03:11:35.858Z,66.51
2022-09-04T03:14:24.596Z,66.75
2022-09-04T03:17:11.962Z,66.97
2022-09-04T03:20:16.835Z,66.91
2022-09-04T03:23:01.610Z,66.93
2022-09-04T03:26:12.761Z,67.05
2022-09-04T03:28:54.658Z,66.58
2022-09-04T03:31:24.092Z,66.56
2022-09-04T03:34:14.188Z,66.47
2022-09-04T03:36:58.866Z,66.65
2022-09-04T03:39:28.374Z,66.94
2022-09-04T03:42:05.821Z,67.18
2022-09-04T03:45:24.522Z,67.43
2022-09-04T03:48:17.582Z,67.21
2022-09-04T03:50:58.949Z,67.12
2022-09-04T03:53:43.539Z,67.45
2022-09-04T03:56:31.674Z,67.79
2022-09-04T03:59:04.839Z,68.17
2022-09-04T04:01:55.105Z,68.18
2022-09-04T04:04:52.654Z,67.93
2022-09-04T04:07:19.815Z,68.03
2022-09-04T04:10:03.331Z,68.08
2022-09-04T04:13:15.101Z,68.38
2022-09-04T04:15:55.880Z,68.62
2022-09-04T04:18:31.581Z,68.75
2022-09-04T04:21:01.055Z,69.20
2022-09-04T04:24:03.069Z,69.05
2022-09-04T04:26:41.640Z,69.39
2022-09-04T04:29:37.904Z,69.48
2022-09-04T04:32:31.563Z,69.92
2022-09-04T04:35:08.433Z,69.80
2022-09-04T04:37:56.213Z,69.56
2022-09-04T04:40:34.706Z,69.77
2022-09-04T04:43:14.020Z,69.42
2022-09-04T04:46:02.279Z,69.60
2022-09-04T04:49:04.571Z,70.43
2022-09-04T04:51:40.794Z,70.49
2022-09-04T04:54:29.996Z,70.82
2022-09-04T04:57:21.015Z,71.02
2022-09-04T05:00:07.605Z,70.76
2022-09-04T05:02:53.188Z,71.16
2022-09-04T05:05:47.281Z,71.57
2022-09-04T05:08:50.899Z,71.73
2022-09-04T05:11:45.406Z,71.50
2022-09-04T05:14:36.901Z,71.85
2022-09-04T05:17:11.733Z,72.25
2022-09-04T05:20:15.961Z,72.26
2022-09-04T05:23:17.476Z,71.85
2022-09-04T05:25:58.567Z,71.52
2022-09-04T05:28:55.997Z,71.64
2022-09-04T05:31:32.545Z,71.22
2022-09-04T05:34:11.209Z,70.24
2022-09-04T05:36:40.354Z,70.22
2022-09-04T05:39:18.868Z,70.35
2022-09-04T05:42:30.589Z,70.45
2022-09-04T05:45:35.861Z,70.53
2022-09-04T05:48:14.862Z,69.63
2022-09-04T05:51:18.605Z,69.73
2022-09-04T05:53:56.217Z,69.79
2022-09-04T05:56:44.097Z,69.43
2022-09-04T05:59:35.168Z,68.80
2022-09-04T06:02:07.674Z,69.05
2022-09-04T06:04:53.005Z,68.18
2022-09-04T06:07:50.620Z,68.68
2022-09-04T06:10:25.978Z,68.74
2022-09-04T06:13:37.603Z,67.63
2022-09-04T06:16:04.024Z,67.39
2022-09-04T06:18:30.479Z,66.00
2022-09-04T06:21:24.603Z,65.78
2022-09-04T06:24:12.953Z,65.91
2022-09-04T06:27:18.993Z,67.36
2022-09-04T06:30:08.846Z,66.01
2022-09-04T06:32:38.294Z,66.55
2022-09-04T06:35:32.974Z,66.33
2022-09-04T06:38:41.665Z,65.29
2022-09-04T06:41:11.148Z,64.77
2022-09-04T06:43:37.890Z,64.63
2022-09-04T06:46:13.729Z,64.32
2022-09-04T06:49:16.273Z,64.11
2022-09-04T06:51:48.736Z,65.19
2022-09-04T06:54:19.684Z,64.78
2022-09-04T06:57:13.979Z,64.89
2022-09-04T06:59:40.421Z,65.77
2022-09-04T07:02:21.974Z,65.18
2022-09-04T07:05:14.783Z,66.24
2022-09-04T07:08:08.215Z,67.20
2022-09-04T07:10:41.391Z,67.61
2022-09-04T07:13:26.457Z,65.44
2022-09-04T07:16:07.774Z,64.50
2022-09-04T07:19:07.791Z,62.98
2022-09-04T07:21:58.928Z,63.67
2022-09-04T07:25:00.753Z,63.32
2022-09-04T07:27:43.741Z,63.88
2022-09-04T07:30:13.766Z,62.74
2022-09-04T07:32:59.337Z,63.05
2022-09-04T07:35:48.623Z,62.27
2022-09-04T07:38:27.612Z,62.22
2022-09-04T07:41:10.540Z,61.66
2022-09-04T07:43:54.618Z,62.70
2022-09-04T07:46:51.760Z,61.02
2022-09-04T07:49:51.544Z,60.37
2022-09-04T07:53:03.280Z,60.71
2022-09-04T07:55:50.831Z,59.89
2022-09-04T07:58:50.427Z,62.04
2022-09-04T08:01:28.934Z,62.35
2022-09-04T08:03:58.211Z,63.90
2022-09-04T08:06:33.656Z,63.88
2022-09-04T08:09:36.839Z,62.79
2022-09-04T08:12:26.274Z,61.78
2022-09-04T08:14:52.617Z,63.33
2022-09-04T08:17:25.501Z,63.11
2022-09-04T08:20:12.650Z,60.68
2022-09-04T08:22:57.578Z,60.59
2022-09-04T08:25:51.574Z,57.92
2022-09-04T08:28:46.579Z,59.06
2022-09-04T08:31:36.727Z,58.99
2022-09-04T08:34:28.389Z,57.83
2022-09-04T08:37:20.820Z,57.20
2022-09-04T08:40:46.606Z,57.51
2022-09-04T08:43:22.716Z,57.56
2022-09-04T08:46:31.740Z,57.22
2022-09-04T08:49:13.199Z,59.21
2022-09-04T08:52:07.079Z,58.35
2022-09-04T08:55:00.680Z,58.43
2022-09-04T08:57:48.496Z,57.04
2022-09-04T09:00:36.343Z,57.44
2022-09-04T09:03:36.083Z,57.29
2022-09-04T09:06:39.713Z,56.57
2022-09-04T09:09:27.984Z,57.10
2022-09-04T09:12:15.668Z,55.87
2022-09-04T09:15:04.110Z,56.96
2022-09-04T09:17:39.285Z,58.76
2022-09-04T09:20:48.872Z,58.36
2022-09-04T09:23:29.881Z,56.50
2022-09-04T09:26:18.316Z,56.79
2022-09-04T09:28:50.790Z,55.35
2022-09-04T09:31:39.204Z,59.87
2022-09-04T09:34:18.984Z,55.12
2022-09-04T09:37:20.459Z,59.75
2022-09-04T09:40:24.763Z,57.95
2022-09-04T09:43:01.891Z,56.25
2022-09-04T09:45:53.557Z,54.24
2022-09-04T09:48:49.411Z,54.05
2022-09-04T09:51:45.135Z,53.90
2022-09-04T09:54:28.303Z,53.04
2022-09-04T09:57:21.177Z,53.37
2022-09-04T10:00:10.740Z,53.17
2022-09-04T10:03:01.719Z,53.88
2022-09-04T10:05:46.543Z,52.69
2022-09-04T10:08:13.030Z,51.43
2022-09-04T10:11:10.288Z,54.75
2022-09-04T10:13:49.251Z,50.88
2022-09-04T10:16:34.986Z,50.85
2022-09-04T10:19:46.439Z,54.43
2022-09-04T10:22:51.519Z,49.98
2022-09-04T10:25:37.040Z,50.20
2022-09-04T10:28:09.449Z,52.58
2022-09-04T10:30:53.159Z,50.31
2022-09-04T10:34:01.665Z,49.33
2022-09-04T10:36:37.857Z,50.22
2022-09-04T10:39:32.943Z,50.35
2022-09-04T10:42:35.021Z,52.63
2022-09-04T10:45:20.150Z,49.06
2022-09-04T10:47:55.784Z,47.99
2022-09-04T10:51:04.191Z,49.50
2022-09-04T10:53:52.771Z,48.34
2022-09-04T10:56:28.866Z,47.92
2022-09-04T10:59:27.757Z,47.63
2022-09-04T11:02:15.463Z,49.07
2022-09-04T11:05:15.676Z,49.27
2022-09-04T11:07:52.329Z,47.04
2022-09-04T11:10:31.651Z,46.37
2022-09-04T11:13:17.005Z,47.25
2022-09-04T11:15:50.320Z,46.78
2022-09-04T11:18:45.449Z,47.44
2022-09-04T11:21:49.448Z,45.85
2022-09-04T11:24:47.206Z,46.99
2022-09-04T11:27:32.367Z,47.57
2022-09-04T11:30:05.345Z,43.72
2022-09-04T11:33:14.197Z,44.30
2022-09-04T11:36:08.404Z,45.91
2022-09-04T11:39:06.183Z,45.43
2022-09-04T11:42:27.669Z,46.17
2022-09-04T11:45:17.207Z,45.82
2022-09-04T11:47:52.721Z,45.64
2022-09-04T11:50:28.185Z,44.72
2022-09-04T11:53:12.759Z,44.89
2022-09-04T11:55:52.536Z,45.81
2022-09-04T11:58:22.294Z,47.25
2022-09-04T12:01:10.398Z,47.30
2022-09-04T12:03:49.734Z,44.30
2022-09-04T12:06:49.438Z,42.85
2022-09-04T12:09:31.935Z,44.45
2022-09-04T12:12:34.411Z,45.46
2022-09-04T12:15:22.185Z,43.99
2022-09-04T12:18:47.233Z,43.69
2022-09-04T12:21:37.768Z,43.32
2022-09-04T12:24:34.940Z,44.75
2022-09-04T12:27:32.109Z,46.43
2022-09-04T12:30:07.927Z,44.73
2022-09-04T12:33:08.539Z,43.90
2022-09-04T12:35:52.346Z,44.74
2022-09-04T12:38:55.833Z,47.21
2022-09-04T12:41:39.779Z,43.28
2022-09-04T12:44:34.393Z,43.52
2022-09-04T12:47:33.089Z,43.65
2022-09-04T12:50:28.333Z,43.69
2022-09-04T12:53:09.727Z,43.28
2022-09-04T12:55:45.618Z,43.33
2022-09-04T12:58:50.320Z,42.36
2022-09-04T13:01:33.381Z,43.99
2022-09-04T13:04:11.798Z,41.96
2022-09-04T13:06:44.264Z,42.40
2022-09-04T13:09:25.780Z,42.56
2022-09-04T13:12:17.107Z,42.27
2022-09-04T13:15:03.190Z,42.04
2022-09-04T13:17:52.942Z,41.09
2022-09-04T13:20:35.253Z,40.90
2022-09-04T13:23:07.684Z,41.24
2022-09-04T13:25:55.785Z,40.74
2022-09-04T13:28:37.901Z,43.32
2022-09-04T13:31:43.738Z,41.42
2022-09-04T13:34:20.873Z,43.92
2022-09-04T13:37:17.223Z,39.97
2022-09-04T13:40:12.388Z,40.55
2022-09-04T13:42:57.187Z,40.18
2022-09-04T13:45:26.729Z,40.51
2022-09-04T13:48:00.503Z,40.37
2022-09-04T13:50:32.126Z,40.89
2022-09-04T13:53:16.671Z,40.61
2022-09-04T13:55:54.300Z,40.69
2022-09-04T13:58:28.116Z,40.10
2022-09-04T14:01:01.362Z,40.30
2022-09-04T14:03:39.996Z,41.33
2022-09-04T14:06:10.193Z,40.80
2022-09-04T14:08:39.806Z,40.49
2022-09-04T14:11:18.141Z,40.16
2022-09-04T14:13:51.509Z,40.21
2022-09-04T14:16:18.981Z,40.14
2022-09-04T14:19:00.419Z,40.62
2022-09-04T14:21:45.731Z,39.32
2022-09-04T14:24:22.957Z,39.75
2022-09-04T14:27:16.700Z,40.02
2022-09-04T14:30:07.528Z,40.13
2022-09-04T14:32:47.651Z,39.49
2022-09-04T14:35:27.820Z,39.55
2022-09-04T14:38:10.077Z,38.81
2022-09-04T14:40:43.673Z,39.75
2022-09-04T14:43:10.073Z,38.59
2022-09-04T14:45:55.364Z,38.70
2022-09-04T14:48:24.164Z,40.27
2022-09-04T14:50:55.766Z,41.43
2022-09-04T14:53:31.778Z,39.27
2022-09-04T14:56:20.268Z,39.01
2022-09-04T14:59:17.462Z,39.45
2022-09-04T15:02:08.713Z,39.54
2022-09-04T15:04:48.378Z,40.57
2022-09-04T15:07:24.770Z,39.32
2022-09-04T15:09:54.710Z,38.57
2022-09-04T15:12:34.354Z,38.43
2022-09-04T15:15:14.353Z,40.53
2022-09-04T15:17:50.354Z,38.06
2022-09-04T15:20:28.282Z,39.89
2022-09-04T15:23:19.898Z,38.74
2022-09-04T15:25:59.091Z,38.02
2022-09-04T15:28:43.627Z,38.94
2022-09-04T15:31:16.446Z,38.74
2022-09-04T15:33:45.676Z,39.21
2022-09-04T15:36:23.831Z,39.25
2022-09-04T15:38:59.864Z,39.13
2022-09-04T15:41:38.998Z,39.10
2022-09-04T15:44:19.402Z,41.70
2022-09-04T15:46:51.178Z,38.96
2022-09-04T15:49:32.915Z,38.07
2022-09-04T15:52:12.610Z,38.55
2022-09-04T15:54:41.854Z,38.44
2022-09-04T15:57:32.042Z,38.55
2022-09-04T16:00:09.373Z,38.38
2022-09-04T16:02:51.463Z,38.29
2022-09-04T16:05:27.274Z,39.29
2022-09-04T16:08:03.646Z,38.82
2022-09-04T16:10:41.781Z,38.89
2022-09-04T16:13:31.347Z,39.86
2022-09-04T16:16:30.784Z,38.99
2022-09-04T16:19:06.598Z,40.24
2022-09-04T16:21:40.819Z,38.96
2022-09-04T16:24:15.212Z,41.59
2022-09-04T16:26:50.411Z,40.28
2022-09-04T16:29:26.524Z,40.63
2022-09-04T16:31:57.562Z,41.28
2022-09-04T16:34:33.125Z,39.62
2022-09-04T16:37:22.524Z,41.80
2022-09-04T16:40:05.122Z,39.66
2022-09-04T16:42:40.936Z,40.06
2022-09-04T16:45:37.266Z,40.54
2022-09-04T16:48:34.922Z,40.84
2022-09-04T16:51:41.903Z,40.63
2022-09-04T16:54:37.203Z,40.71
2022-09-04T16:57:15.570Z,40.72
2022-09-04T16:59:48.464Z,40.29
2022-09-04T17:02:46.940Z,40.98
2022-09-04T17:05:27.890Z,41.71
2022-09-04T17:08:02.048Z,42.14
2022-09-04T17:10:41.285Z,41.47
2022-09-04T17:13:16.800Z,41.65
2022-09-04T17:15:57.965Z,41.52
2022-09-04T17:18:28.781Z,42.26
2022-09-04T17:27:00.356Z,42.20
2022-09-04T17:29:15.228Z,42.50
2022-09-04T17:29:17.546Z,42.15
2022-09-04T17:30:55.610Z,43.20
2022-09-04T17:40:06.247Z,43.04
2022-09-04T17:40:36.003Z,43.65
2022-09-04T17:40:56.106Z,43.33
2022-09-04T17:42:57.067Z,44.02
2022-09-04T17:45:45.989Z,43.67
2022-09-04T17:48:25.003Z,43.80
2022-09-04T17:50:57.185Z,44.63
2022-09-04T17:53:34.359Z,44.51
2022-09-04T17:56:07.157Z,44.70
2022-09-04T17:58:42.519Z,44.89
2022-09-04T18:01:19.966Z,45.34
2022-09-04T18:04:22.864Z,45.38
2022-09-04T18:07:33.671Z,45.43
2022-09-04T18:10:03.393Z,45.33
2022-09-04T18:12:38.709Z,45.47
2022-09-04T18:15:33.429Z,45.86
2022-09-04T18:18:12.161Z,45.87
2022-09-04T18:20:51.717Z,45.66
2022-09-04T18:23:50.867Z,46.62
2022-09-04T18:26:25.605Z,46.40
2022-09-04T18:30:57.270Z,47.36
2022-09-04T18:37:12.713Z,47.40
2022-09-04T18:37:20.115Z,47.02
2022-09-04T18:39:08.185Z,47.63
2022-09-04T18:48:17.353Z,48.45
2022-09-04T18:50:30.794Z,48.88
2022-09-04T18:50:40.367Z,49.22
2022-09-04T18:53:43.522Z,49.73
2022-09-04T18:56:26.465Z,49.20
2022-09-04T18:59:19.224Z,49.23
2022-09-04T19:02:14.544Z,49.47
2022-09-04T19:04:51.800Z,49.50
2022-09-04T19:07:31.686Z,49.81
2022-09-04T19:10:25.740Z,49.91
2022-09-04T19:12:53.749Z,50.10
2022-09-04T19:15:50.448Z,50.20
2022-09-04T19:18:43.613Z,50.59
2022-09-04T19:21:10.727Z,50.94
2022-09-04T19:23:53.392Z,51.09
2022-09-04T19:26:26.222Z,50.74
2022-09-04T19:29:12.214Z,51.06
2022-09-04T19:31:48.830Z,50.74
2022-09-04T19:34:33.571Z,50.92
2022-09-04T19:37:44.789Z,51.00
2022-09-04T19:46:02.152Z,51.38
2022-09-04T19:46:08.069Z,51.32
2022-09-04T19:52:05.007Z,51.63
2022-09-04T19:53:30.005Z,51.33
2022-09-04T19:55:24.332Z,51.22
2022-09-04T19:58:04.802Z,51.36
2022-09-04T20:00:43.944Z,51.40
2022-09-04T20:03:48.569Z,51.47
2022-09-04T20:06:27.037Z,51.72
2022-09-04T20:09:02.715Z,51.70
2022-09-04T20:11:46.381Z,52.00
2022-09-04T20:14:27.689Z,51.59
2022-09-04T20:17:01.180Z,52.09
2022-09-04T20:19:43.129Z,52.62
2022-09-04T20:22:31.259Z,52.30
2022-09-04T20:25:06.712Z,52.05
2022-09-04T20:27:36.702Z,52.65
2022-09-04T20:30:16.602Z,52.68
2022-09-04T20:32:56.544Z,52.97
2022-09-04T20:36:15.788Z,53.04
2022-09-04T20:38:57.851Z,53.33
2022-09-04T20:41:32.999Z,53.34
2022-09-04T20:48:12.597Z,53.60
2022-09-04T20:52:42.143Z,53.62
2022-09-04T20:53:06.250Z,53.52
2022-09-04T20:54:28.583Z,53.36
2022-09-04T21:01:38.593Z,53.80
2022-09-04T21:03:21.876Z,54.38
2022-09-04T21:06:07.333Z,55.54
2022-09-04T21:08:52.407Z,55.71
2022-09-04T21:11:40.702Z,55.83
2022-09-04T21:14:18.655Z,55.49
2022-09-04T21:16:53.967Z,55.99
2022-09-04T21:20:10.882Z,56.67
2022-09-04T21:22:55.421Z,57.47
2022-09-04T21:25:21.839Z,57.85
2022-09-04T21:28:28.831Z,58.70
2022-09-04T21:31:31.046Z,59.16
2022-09-04T21:34:25.383Z,59.22
2022-09-04T21:37:08.587Z,59.32
2022-09-04T21:39:47.033Z,58.96
2022-09-04T21:42:19.192Z,58.65
2022-09-04T21:45:13.394Z,58.73
2022-09-04T21:47:59.596Z,58.76
2022-09-04T21:50:30.412Z,58.85
2022-09-04T21:53:24.985Z,59.51
2022-09-04T22:02:26.845Z,59.61
2022-09-04T22:02:40.141Z,60.92
2022-09-04T22:02:51.531Z,61.23
2022-09-04T22:05:51.429Z,61.85
2022-09-04T22:13:26.468Z,62.00
2022-09-04T22:13:41.990Z,62.51
2022-09-04T22:14:25.400Z,63.04
2022-09-04T22:17:13.167Z,63.23
2022-09-04T22:20:04.406Z,63.27
2022-09-04T22:22:46.150Z,63.17
2022-09-04T22:25:41.268Z,64.44
2022-09-04T22:28:30.027Z,64.49
2022-09-04T22:31:22.419Z,64.75
2022-09-04T22:34:22.234Z,64.48
2022-09-04T22:37:09.973Z,65.44
2022-09-04T22:40:14.048Z,66.14
2022-09-04T22:42:52.058Z,65.52
2022-09-04T22:45:18.472Z,65.71
2022-09-04T22:48:03.759Z,66.32
2022-09-04T22:51:06.081Z,66.54
2022-09-04T22:53:47.532Z,67.43
2022-09-04T22:56:25.474Z,67.33
2022-09-04T22:59:37.211Z,67.21
2022-09-04T23:03:04.250Z,68.27
2022-09-04T23:05:28.419Z,68.56
2022-09-04T23:12:30.272Z,69.65
2022-09-04T23:14:00.478Z,70.76
2022-09-04T23:14:39.217Z,70.28
2022-09-04T23:17:32.594Z,68.92
2022-09-04T23:26:39.420Z,68.23
2022-09-04T23:26:46.044Z,68.30
2022-09-04T23:26:59.457Z,68.87
2022-09-04T23:29:49.329Z,69.30
2022-09-04T23:32:39.600Z,70.17
2022-09-04T23:35:15.581Z,69.88
2022-09-04T23:38:00.074Z,70.26
2022-09-04T23:40:34.611Z,69.90
2022-09-04T23:43:33.403Z,70.56
2022-09-04T23:46:38.607Z,70.68
2022-09-04T23:49:32.049Z,71.71
2022-09-04T23:52:07.865Z,73.37
2022-09-04T23:54:55.490Z,71.64
2022-09-04T23:57:29.036Z,71.95
